WZZ25 ESGG-ENRO
Flight info
| Callsign | WZZ25 |
|---|---|
| Flight time | 0h 49m |
| Altitude | 36000 |
| Route | SABAK L997 REGMA DCT GIGNI |
| Aircraft | A320/M-SDE3FGHIRWY/LB1 |
Departure
| Time | 2026-05-07 15:18 |
|---|---|
| Airport | Göteborg Landvetter Airport (ESGG) |
Arrival
| Time | 2026-05-07 16:08 |
|---|---|
| Airport | Røros Airport (ENRO) |
| Time | Latitude | Longitude | Altitude | Speed | Heading |
|---|---|---|---|---|---|
| 2026-05-07 14:53 | 57.67079 | 12.29351 | 529 ft | 0 kts | 250° |
| 2026-05-07 15:06 | 57.67081 | 12.29363 | 529 ft | 2 kts | 250° |
| 2026-05-07 15:06 | 57.67086 | 12.29392 | 529 ft | 2 kts | 276° |
| 2026-05-07 15:06 | 57.67081 | 12.29422 | 529 ft | 2 kts | 323° |
| 2026-05-07 15:07 | 57.67067 | 12.29437 | 529 ft | 2 kts | 14° |
| 2026-05-07 15:07 | 57.67063 | 12.29436 | 529 ft | 0 kts | 25° |
| 2026-05-07 15:09 | 57.67064 | 12.29437 | 529 ft | 1 kts | 25° |
| 2026-05-07 15:09 | 57.67093 | 12.29463 | 530 ft | 7 kts | 25° |
| 2026-05-07 15:09 | 57.67142 | 12.29506 | 530 ft | 9 kts | 25° |
| 2026-05-07 15:09 | 57.67198 | 12.29538 | 531 ft | 5 kts | 1° |
| 2026-05-07 15:10 | 57.67205 | 12.29545 | 531 ft | 0 kts | 24° |
| 2026-05-07 15:10 | 57.67208 | 12.29545 | 531 ft | 0 kts | 12° |
| 2026-05-07 15:10 | 57.67211 | 12.29541 | 531 ft | 2 kts | 340° |
| 2026-05-07 15:10 | 57.67229 | 12.29429 | 531 ft | 12 kts | 295° |
| 2026-05-07 15:11 | 57.67268 | 12.29277 | 531 ft | 14 kts | 312° |
| 2026-05-07 15:11 | 57.67359 | 12.29307 | 532 ft | 15 kts | 27° |
| 2026-05-07 15:11 | 57.67452 | 12.29313 | 532 ft | 15 kts | 306° |
| 2026-05-07 15:11 | 57.67460 | 12.29267 | 532 ft | 0 kts | 276° |
| 2026-05-07 15:17 | 57.67456 | 12.29161 | 531 ft | 14 kts | 257° |
| 2026-05-07 15:17 | 57.67394 | 12.28988 | 530 ft | 17 kts | 217° |
| 2026-05-07 15:18 | 57.67232 | 12.28830 | 531 ft | 56 kts | 207° |
| 2026-05-07 15:18 | 57.66665 | 12.28317 | 525 ft | 122 kts | 205° |
| 2026-05-07 15:18 | 57.65766 | 12.27487 | 695 ft | 153 kts | 212° |
| 2026-05-07 15:18 | 57.64815 | 12.26586 | 1478 ft | 153 kts | 210° |
| 2026-05-07 15:19 | 57.63839 | 12.25698 | 2103 ft | 164 kts | 210° |
| 2026-05-07 15:19 | 57.62747 | 12.24712 | 2445 ft | 185 kts | 208° |
| 2026-05-07 15:19 | 57.61515 | 12.23606 | 2777 ft | 209 kts | 208° |
| 2026-05-07 15:19 | 57.60128 | 12.22357 | 3213 ft | 234 kts | 207° |
| 2026-05-07 15:20 | 57.58586 | 12.20967 | 3780 ft | 256 kts | 208° |
| 2026-05-07 15:20 | 57.57179 | 12.18871 | 4660 ft | 265 kts | 233° |
| 2026-05-07 15:20 | 57.56460 | 12.15749 | 5596 ft | 270 kts | 258° |
| 2026-05-07 15:20 | 57.56097 | 12.12261 | 6692 ft | 271 kts | 259° |
| 2026-05-07 15:21 | 57.55745 | 12.08799 | 7711 ft | 272 kts | 260° |
| 2026-05-07 15:21 | 57.55394 | 12.05349 | 8785 ft | 272 kts | 260° |
| 2026-05-07 15:21 | 57.55036 | 12.01866 | 9757 ft | 275 kts | 259° |
| 2026-05-07 15:21 | 57.54728 | 11.98340 | 10638 ft | 278 kts | 267° |
| 2026-05-07 15:22 | 57.54910 | 11.94745 | 11402 ft | 286 kts | 284° |
| 2026-05-07 15:22 | 57.55815 | 11.91301 | 11693 ft | 311 kts | 308° |
| 2026-05-07 15:22 | 57.57561 | 11.88793 | 11910 ft | 337 kts | 335° |
| 2026-05-07 15:22 | 57.59893 | 11.87545 | 12059 ft | 362 kts | 345° |
| 2026-05-07 15:23 | 57.62425 | 11.86514 | 12192 ft | 383 kts | 347° |
| 2026-05-07 15:23 | 57.65087 | 11.85510 | 12564 ft | 395 kts | 347° |
| 2026-05-07 15:23 | 57.67804 | 11.84502 | 13190 ft | 400 kts | 347° |
| 2026-05-07 15:23 | 57.70542 | 11.83467 | 13896 ft | 403 kts | 346° |
| 2026-05-07 15:24 | 57.73297 | 11.82395 | 14492 ft | 406 kts | 346° |
| 2026-05-07 15:24 | 57.76035 | 11.81303 | 15540 ft | 393 kts | 345° |
| 2026-05-07 15:24 | 57.78652 | 11.80245 | 16841 ft | 380 kts | 345° |
| 2026-05-07 15:24 | 57.81231 | 11.79196 | 17682 ft | 379 kts | 345° |
| 2026-05-07 15:25 | 57.83816 | 11.78133 | 18361 ft | 382 kts | 345° |
| 2026-05-07 15:25 | 57.86423 | 11.77060 | 18936 ft | 385 kts | 345° |
| 2026-05-07 15:25 | 57.89050 | 11.75984 | 19530 ft | 388 kts | 345° |
| 2026-05-07 15:25 | 57.91704 | 11.74903 | 20134 ft | 391 kts | 345° |
| 2026-05-07 15:26 | 57.94374 | 11.73820 | 20739 ft | 394 kts | 344° |
| 2026-05-07 15:26 | 57.97063 | 11.72726 | 21318 ft | 396 kts | 344° |
| 2026-05-07 15:26 | 57.99768 | 11.71626 | 21862 ft | 399 kts | 344° |
| 2026-05-07 15:26 | 58.02492 | 11.70518 | 22389 ft | 402 kts | 344° |
| 2026-05-07 15:27 | 58.05204 | 11.69409 | 22904 ft | 405 kts | 344° |
| 2026-05-07 15:27 | 58.07967 | 11.68273 | 23425 ft | 408 kts | 343° |
| 2026-05-07 15:27 | 58.10747 | 11.67131 | 23896 ft | 411 kts | 343° |
| 2026-05-07 15:27 | 58.13554 | 11.66007 | 24328 ft | 414 kts | 345° |
| 2026-05-07 15:28 | 58.16394 | 11.65008 | 24763 ft | 416 kts | 346° |
| 2026-05-07 15:28 | 58.19252 | 11.64114 | 25290 ft | 416 kts | 347° |
| 2026-05-07 15:28 | 58.22105 | 11.63276 | 25896 ft | 414 kts | 347° |
| 2026-05-07 15:28 | 58.24940 | 11.62451 | 26501 ft | 411 kts | 347° |
| 2026-05-07 15:29 | 58.27760 | 11.61625 | 27112 ft | 410 kts | 348° |
| 2026-05-07 15:29 | 58.30621 | 11.61303 | 27701 ft | 412 kts | 354° |
| 2026-05-07 15:29 | 58.33476 | 11.61187 | 28317 ft | 410 kts | 354° |
| 2026-05-07 15:29 | 58.36321 | 11.61098 | 28941 ft | 408 kts | 354° |
| 2026-05-07 15:30 | 58.39160 | 11.61024 | 29419 ft | 410 kts | 354° |
| 2026-05-07 15:30 | 58.42046 | 11.60944 | 29564 ft | 419 kts | 354° |
| 2026-05-07 15:30 | 58.44993 | 11.60855 | 29711 ft | 428 kts | 354° |
| 2026-05-07 15:30 | 58.48001 | 11.60759 | 29856 ft | 436 kts | 354° |
| 2026-05-07 15:31 | 58.53168 | 11.60595 | 30145 ft | 449 kts | 354° |
| 2026-05-07 15:31 | 58.56308 | 11.60504 | 30424 ft | 452 kts | 354° |
| 2026-05-07 15:31 | 58.59454 | 11.60412 | 30845 ft | 452 kts | 354° |
| 2026-05-07 15:32 | 58.62595 | 11.60322 | 31302 ft | 451 kts | 354° |
| 2026-05-07 15:32 | 58.65731 | 11.60231 | 31796 ft | 450 kts | 354° |
| 2026-05-07 15:32 | 58.68850 | 11.60139 | 32298 ft | 448 kts | 354° |
| 2026-05-07 15:32 | 58.71962 | 11.60047 | 32801 ft | 446 kts | 354° |
| 2026-05-07 15:33 | 58.75062 | 11.59949 | 33307 ft | 445 kts | 354° |
| 2026-05-07 15:33 | 58.78151 | 11.59840 | 33821 ft | 443 kts | 354° |
| 2026-05-07 15:33 | 58.81221 | 11.59729 | 34319 ft | 441 kts | 353° |
| 2026-05-07 15:33 | 58.84293 | 11.59622 | 34702 ft | 441 kts | 354° |
| 2026-05-07 15:34 | 58.87367 | 11.59521 | 35034 ft | 443 kts | 354° |
| 2026-05-07 15:34 | 58.90452 | 11.59425 | 35361 ft | 444 kts | 354° |
| 2026-05-07 15:34 | 58.93547 | 11.59323 | 35688 ft | 446 kts | 354° |
| 2026-05-07 15:34 | 58.96656 | 11.59222 | 35991 ft | 448 kts | 354° |
| 2026-05-07 15:35 | 58.99777 | 11.59123 | 36096 ft | 450 kts | 354° |
| 2026-05-07 15:35 | 59.02911 | 11.59021 | 36110 ft | 450 kts | 354° |
| 2026-05-07 15:35 | 59.09136 | 11.58827 | 36137 ft | 450 kts | 354° |
| 2026-05-07 15:36 | 59.15391 | 11.58636 | 36110 ft | 449 kts | 354° |
| 2026-05-07 15:36 | 59.21636 | 11.58434 | 36100 ft | 449 kts | 354° |
| 2026-05-07 15:37 | 59.27880 | 11.58225 | 36105 ft | 448 kts | 353° |
| 2026-05-07 15:37 | 59.34129 | 11.58016 | 36102 ft | 449 kts | 353° |
| 2026-05-07 15:38 | 59.40374 | 11.57811 | 36128 ft | 449 kts | 353° |
| 2026-05-07 15:38 | 59.46580 | 11.57609 | 36116 ft | 449 kts | 353° |
| 2026-05-07 15:39 | 59.52825 | 11.57401 | 36112 ft | 449 kts | 353° |
| 2026-05-07 15:39 | 59.59076 | 11.57196 | 36108 ft | 449 kts | 353° |
| 2026-05-07 15:40 | 59.65324 | 11.56984 | 36106 ft | 449 kts | 353° |
| 2026-05-07 15:40 | 59.71565 | 11.56752 | 36117 ft | 448 kts | 353° |
| 2026-05-07 15:41 | 59.77804 | 11.56542 | 36111 ft | 448 kts | 353° |
| 2026-05-07 15:41 | 59.84006 | 11.56342 | 36105 ft | 449 kts | 353° |
| 2026-05-07 15:42 | 59.90289 | 11.56152 | 36097 ft | 449 kts | 353° |
| 2026-05-07 15:42 | 59.96535 | 11.55935 | 36135 ft | 449 kts | 352° |
| 2026-05-07 15:43 | 60.02779 | 11.55711 | 36102 ft | 449 kts | 352° |
| 2026-05-07 15:43 | 60.09029 | 11.55489 | 36094 ft | 449 kts | 353° |
| 2026-05-07 15:44 | 60.15282 | 11.55272 | 36090 ft | 449 kts | 353° |
| 2026-05-07 15:44 | 60.21495 | 11.55067 | 36094 ft | 450 kts | 353° |
| 2026-05-07 15:45 | 60.27750 | 11.54852 | 36121 ft | 450 kts | 352° |
| 2026-05-07 15:45 | 60.34013 | 11.54621 | 36103 ft | 450 kts | 352° |
| 2026-05-07 15:46 | 60.43417 | 11.54287 | 36104 ft | 451 kts | 352° |
| 2026-05-07 15:47 | 60.49722 | 11.54078 | 35670 ft | 448 kts | 352° |
| 2026-05-07 15:47 | 60.52787 | 11.53976 | 35078 ft | 445 kts | 351° |
| 2026-05-07 15:47 | 60.55878 | 11.53869 | 34551 ft | 443 kts | 351° |
| 2026-05-07 15:47 | 60.58954 | 11.53761 | 33929 ft | 441 kts | 350° |
| 2026-05-07 15:48 | 60.62018 | 11.53652 | 33200 ft | 440 kts | 350° |
| 2026-05-07 15:48 | 60.65078 | 11.53542 | 32394 ft | 440 kts | 350° |
| 2026-05-07 15:48 | 60.68136 | 11.53430 | 31568 ft | 440 kts | 351° |
| 2026-05-07 15:48 | 60.71201 | 11.53315 | 30734 ft | 441 kts | 351° |
| 2026-05-07 15:49 | 60.74265 | 11.53198 | 29830 ft | 441 kts | 351° |
| 2026-05-07 15:49 | 60.77341 | 11.53083 | 28755 ft | 443 kts | 351° |
| 2026-05-07 15:49 | 60.80428 | 11.52972 | 27613 ft | 445 kts | 352° |
| 2026-05-07 15:49 | 60.83536 | 11.52861 | 26425 ft | 448 kts | 352° |
| 2026-05-07 15:50 | 60.86662 | 11.52751 | 25604 ft | 451 kts | 352° |
| 2026-05-07 15:50 | 60.89809 | 11.52639 | 25274 ft | 453 kts | 352° |
| 2026-05-07 15:50 | 60.92966 | 11.52530 | 25075 ft | 455 kts | 352° |
| 2026-05-07 15:50 | 60.96132 | 11.52420 | 25082 ft | 455 kts | 352° |
| 2026-05-07 15:51 | 60.99304 | 11.52303 | 25089 ft | 456 kts | 352° |
| 2026-05-07 15:51 | 61.02452 | 11.52188 | 24493 ft | 450 kts | 352° |
| 2026-05-07 15:51 | 61.05573 | 11.52077 | 23536 ft | 446 kts | 352° |
| 2026-05-07 15:51 | 61.08661 | 11.51970 | 22490 ft | 441 kts | 353° |
| 2026-05-07 15:52 | 61.11679 | 11.51866 | 21482 ft | 437 kts | 353° |
| 2026-05-07 15:52 | 61.14703 | 11.51757 | 20533 ft | 433 kts | 353° |
| 2026-05-07 15:52 | 61.17705 | 11.51647 | 19620 ft | 429 kts | 354° |
| 2026-05-07 15:52 | 61.20676 | 11.51541 | 18726 ft | 426 kts | 354° |
| 2026-05-07 15:53 | 61.23632 | 11.51434 | 17778 ft | 423 kts | 354° |
| 2026-05-07 15:53 | 61.26560 | 11.51326 | 16859 ft | 418 kts | 355° |
| 2026-05-07 15:53 | 61.29445 | 11.51218 | 16277 ft | 414 kts | 355° |
| 2026-05-07 15:53 | 61.32331 | 11.51107 | 16073 ft | 415 kts | 355° |
| 2026-05-07 15:54 | 61.35221 | 11.50999 | 16082 ft | 415 kts | 355° |
| 2026-05-07 15:54 | 61.38107 | 11.50893 | 16091 ft | 415 kts | 355° |
| 2026-05-07 15:54 | 61.40990 | 11.50788 | 16091 ft | 415 kts | 355° |
| 2026-05-07 15:54 | 61.43880 | 11.50683 | 16110 ft | 415 kts | 355° |
| 2026-05-07 15:55 | 61.46764 | 11.50577 | 16088 ft | 414 kts | 355° |
| 2026-05-07 15:55 | 61.49643 | 11.50467 | 16090 ft | 414 kts | 355° |
| 2026-05-07 15:55 | 61.52521 | 11.50354 | 16090 ft | 414 kts | 355° |
| 2026-05-07 15:55 | 61.55400 | 11.50241 | 16091 ft | 414 kts | 355° |
| 2026-05-07 15:56 | 61.58278 | 11.50126 | 16092 ft | 414 kts | 355° |
| 2026-05-07 15:56 | 61.61162 | 11.50014 | 16094 ft | 414 kts | 355° |
| 2026-05-07 15:56 | 61.64041 | 11.49908 | 16095 ft | 414 kts | 355° |
| 2026-05-07 15:56 | 61.66920 | 11.49800 | 16095 ft | 414 kts | 355° |
| 2026-05-07 15:57 | 61.69805 | 11.49693 | 16094 ft | 414 kts | 355° |
| 2026-05-07 15:57 | 61.72682 | 11.49590 | 16091 ft | 414 kts | 355° |
| 2026-05-07 15:57 | 61.75564 | 11.49486 | 16110 ft | 414 kts | 355° |
| 2026-05-07 15:57 | 61.78434 | 11.49377 | 16088 ft | 412 kts | 355° |
| 2026-05-07 15:58 | 61.81303 | 11.49263 | 16095 ft | 412 kts | 355° |
| 2026-05-07 15:58 | 61.84171 | 11.49147 | 16049 ft | 410 kts | 355° |
| 2026-05-07 15:58 | 61.87007 | 11.49035 | 15253 ft | 406 kts | 355° |
| 2026-05-07 15:58 | 61.89821 | 11.48926 | 14442 ft | 402 kts | 355° |
| 2026-05-07 15:59 | 61.92604 | 11.48818 | 13684 ft | 398 kts | 355° |
| 2026-05-07 15:59 | 61.95358 | 11.48711 | 12872 ft | 394 kts | 356° |
| 2026-05-07 15:59 | 61.98083 | 11.48606 | 12045 ft | 390 kts | 357° |
| 2026-05-07 15:59 | 62.00779 | 11.48946 | 11351 ft | 386 kts | 7° |
| 2026-05-07 16:00 | 62.03359 | 11.50066 | 11118 ft | 374 kts | 11° |
| 2026-05-07 16:00 | 62.05961 | 11.51254 | 11101 ft | 387 kts | 10° |
| 2026-05-07 16:00 | 62.08606 | 11.52446 | 11101 ft | 389 kts | 10° |
| 2026-05-07 16:00 | 62.11255 | 11.53639 | 11101 ft | 390 kts | 10° |
| 2026-05-07 16:01 | 62.13909 | 11.54841 | 11097 ft | 390 kts | 10° |
| 2026-05-07 16:01 | 62.16562 | 11.56052 | 11101 ft | 390 kts | 10° |
| 2026-05-07 16:01 | 62.19237 | 11.56876 | 11053 ft | 386 kts | 5° |
| 2026-05-07 16:01 | 62.21888 | 11.57496 | 10403 ft | 381 kts | 5° |
| 2026-05-07 16:02 | 62.24527 | 11.58106 | 10151 ft | 383 kts | 5° |
| 2026-05-07 16:02 | 62.27180 | 11.58714 | 10089 ft | 384 kts | 4° |
| 2026-05-07 16:02 | 62.29787 | 11.59312 | 10062 ft | 366 kts | 5° |
| 2026-05-07 16:02 | 62.32246 | 11.59881 | 9549 ft | 356 kts | 5° |
| 2026-05-07 16:03 | 62.34679 | 11.60446 | 8982 ft | 348 kts | 4° |
| 2026-05-07 16:03 | 62.37072 | 11.61004 | 8363 ft | 344 kts | 5° |
| 2026-05-07 16:03 | 62.39434 | 11.61314 | 7750 ft | 333 kts | 360° |
| 2026-05-07 16:03 | 62.41688 | 11.61291 | 7163 ft | 315 kts | 358° |
| 2026-05-07 16:04 | 62.43832 | 11.61157 | 6581 ft | 302 kts | 356° |
| 2026-05-07 16:04 | 62.45893 | 11.60904 | 5846 ft | 293 kts | 348° |
| 2026-05-07 16:04 | 62.47764 | 11.59477 | 5347 ft | 279 kts | 329° |
| 2026-05-07 16:04 | 62.49236 | 11.56966 | 4976 ft | 263 kts | 311° |
| 2026-05-07 16:05 | 62.50374 | 11.53985 | 4603 ft | 253 kts | 308° |
| 2026-05-07 16:05 | 62.51457 | 11.51114 | 4237 ft | 233 kts | 308° |
| 2026-05-07 16:05 | 62.52367 | 11.48650 | 3933 ft | 186 kts | 308° |
| 2026-05-07 16:05 | 62.53109 | 11.46662 | 3604 ft | 155 kts | 308° |
| 2026-05-07 16:06 | 62.53748 | 11.44943 | 3344 ft | 140 kts | 309° |
| 2026-05-07 16:06 | 62.54342 | 11.43343 | 3121 ft | 134 kts | 309° |
| 2026-05-07 16:06 | 62.54918 | 11.41786 | 2905 ft | 130 kts | 309° |
| 2026-05-07 16:06 | 62.55481 | 11.40265 | 2720 ft | 129 kts | 309° |
| 2026-05-07 16:07 | 62.56035 | 11.38767 | 2529 ft | 129 kts | 309° |
| 2026-05-07 16:07 | 62.56611 | 11.37235 | 2370 ft | 129 kts | 313° |
| 2026-05-07 16:07 | 62.57244 | 11.35886 | 2188 ft | 127 kts | 315° |
| 2026-05-07 16:07 | 62.57814 | 11.34684 | 2101 ft | 81 kts | 316° |
| 2026-05-07 16:08 | 62.58073 | 11.34144 | 2060 ft | 44 kts | 316° |
| 2026-05-07 16:08 | 62.58287 | 11.33696 | 2063 ft | 42 kts | 316° |
| 2026-05-07 16:08 | 62.58447 | 11.33396 | 2062 ft | 6 kts | 356° |